Time;durP1;ratioP1;P1;durP2;ratioP2;P2;SDS_P1;SDS_P2;PMS_P1;PMS_P2;Temp;Humidity;BMP_temperature;BMP_pressure;BME280_temperature;BME280_humidity;BME280_pressure;Samples;Min_cycle;Max_cycle;Signal;HPM_P1;HPM_P2
2024/04/06 00:01:04;;;;;;;2.83;1.77;;;;;;;9.92;53.65;95257.66;5032680;28;20483;-75
2024/04/06 00:03:29;;;;;;;2.97;1.80;;;;;;;10.04;53.60;95253.34;5078420;28;20059;-75
2024/04/06 00:05:55;;;;;;;4.35;1.67;;;;;;;9.97;53.87;95252.97;5083381;28;20031;-74
2024/04/06 00:08:20;;;;;;;2.58;1.67;;;;;;;10.04;53.61;95253.34;5048104;28;20044;-75
2024/04/06 00:10:46;;;;;;;2.90;1.63;;;;;;;10.06;53.85;95244.50;5060431;28;20024;-75
2024/04/06 00:13:11;;;;;;;2.92;1.73;;;;;;;10.09;53.47;95234.84;5065502;28;20086;-75
2024/04/06 00:15:37;;;;;;;2.42;1.45;;;;;;;10.08;54.10;95226.19;5069417;28;20036;-75
2024/04/06 00:18:02;;;;;;;2.85;1.40;;;;;;;10.17;53.22;95242.84;5048084;28;20418;-74
2024/04/06 00:20:29;;;;;;;2.75;1.63;;;;;;;10.18;53.33;95237.56;5052192;28;20481;-75
2024/04/06 00:22:54;;;;;;;3.58;1.50;;;;;;;10.24;52.91;95247.50;5080690;28;20173;-74
2024/04/06 00:25:20;;;;;;;2.60;1.42;;;;;;;10.20;53.35;95248.66;5035710;28;20510;-75
2024/04/06 00:27:45;;;;;;;3.38;1.75;;;;;;;10.13;54.08;95247.47;5076823;28;20060;-75
2024/04/06 00:30:11;;;;;;;2.95;2.08;;;;;;;10.20;54.53;95251.28;5067328;28;20474;-75
2024/04/06 00:32:36;;;;;;;2.97;2.00;;;;;;;9.98;54.69;95239.03;5032924;28;20033;-75
2024/04/06 00:35:02;;;;;;;3.30;1.75;;;;;;;10.02;54.93;95237.03;5048892;28;20025;-74
2024/04/06 00:37:27;;;;;;;3.63;1.92;;;;;;;9.84;55.34;95234.88;5068363;28;20036;-75
2024/04/06 00:39:53;;;;;;;2.55;1.75;;;;;;;9.82;55.74;95241.94;5044518;28;20086;-75
2024/04/06 00:42:18;;;;;;;3.75;1.60;;;;;;;9.58;56.33;95233.31;5073681;28;20109;-75
2024/04/06 00:44:43;;;;;;;7.57;1.75;;;;;;;9.58;56.38;95226.41;5071979;28;20505;-75
2024/04/06 00:47:09;;;;;;;3.08;1.40;;;;;;;9.62;56.99;95230.41;5049353;28;20032;-74
2024/04/06 00:49:34;;;;;;;2.65;1.73;;;;;;;9.56;56.78;95230.03;5034954;28;20048;-74
2024/04/06 00:52:00;;;;;;;3.67;1.70;;;;;;;9.58;55.82;95225.53;5036408;28;20029;-74
2024/04/06 00:54:25;;;;;;;2.95;1.45;;;;;;;9.44;55.86;95234.31;5070229;28;20029;-75
2024/04/06 00:56:51;;;;;;;2.45;1.40;;;;;;;9.52;55.67;95223.41;5038964;28;20452;-74
2024/04/06 00:59:17;;;;;;;2.45;1.45;;;;;;;9.60;55.45;95244.44;5022479;28;20483;-75
2024/04/06 01:01:42;;;;;;;3.30;1.33;;;;;;;9.60;56.25;95231.47;5044459;28;20033;-74
2024/04/06 01:04:08;;;;;;;3.03;1.60;;;;;;;9.59;56.16;95220.25;5035324;28;20494;-74
2024/04/06 01:06:33;;;;;;;2.45;1.27;;;;;;;9.54;57.08;95235.31;5020079;28;20037;-75
2024/04/06 01:08:58;;;;;;;2.72;1.50;;;;;;;9.47;56.81;95230.69;5035506;28;20040;-74
2024/04/06 01:11:24;;;;;;;3.17;1.98;;;;;;;9.30;57.22;95214.56;5020802;28;20025;-75
2024/04/06 01:13:49;;;;;;;3.53;1.50;;;;;;;9.49;57.06;95242.59;5055401;28;20452;-75
2024/04/06 01:16:15;;;;;;;3.17;1.40;;;;;;;9.26;57.89;95233.06;5038343;28;20035;-75
2024/04/06 01:18:40;;;;;;;3.47;1.60;;;;;;;9.43;57.49;95244.81;5038999;28;20048;-75
2024/04/06 01:21:05;;;;;;;3.10;1.33;;;;;;;9.48;58.13;95242.72;5053694;28;20025;-75
2024/04/06 01:23:31;;;;;;;2.50;1.52;;;;;;;9.44;58.06;95243.88;5043647;28;20025;-75
2024/04/06 01:25:56;;;;;;;2.55;1.50;;;;;;;9.43;58.55;95242.22;5053008;28;20024;-75
2024/04/06 01:28:22;;;;;;;3.00;1.60;;;;;;;9.40;59.05;95246.69;5053672;28;20511;-75
2024/04/06 01:30:47;;;;;;;2.42;1.52;;;;;;;9.28;58.22;95249.34;5009857;28;20144;-75
2024/04/06 01:33:13;;;;;;;2.67;1.40;;;;;;;9.17;57.32;95250.09;5035196;28;20033;-75
2024/04/06 01:35:38;;;;;;;2.78;1.58;;;;;;;9.09;57.21;95239.44;5052806;28;20021;-75
2024/04/06 01:38:03;;;;;;;4.18;1.70;;;;;;;9.07;57.16;95225.75;5035140;28;20029;-75
2024/04/06 01:40:29;;;;;;;2.50;1.58;;;;;;;9.12;57.06;95210.69;5065869;28;20090;-75
2024/04/06 01:42:55;;;;;;;3.35;1.77;;;;;;;9.18;57.22;95236.19;5054883;28;20090;-75
2024/04/06 01:45:20;;;;;;;3.55;1.70;;;;;;;9.30;56.83;95232.72;5053266;28;20036;-74
2024/04/06 01:47:46;;;;;;;4.32;1.70;;;;;;;9.23;56.98;95228.91;5036116;28;20409;-74
2024/04/06 01:50:11;;;;;;;3.38;1.63;;;;;;;8.99;57.47;95204.72;5054412;28;20025;-74
2024/04/06 01:52:37;;;;;;;2.95;1.75;;;;;;;9.09;57.29;95216.09;5036733;28;20414;-75
2024/04/06 01:55:03;;;;;;;2.60;1.80;;;;;;;9.12;57.14;95213.28;5035550;28;20036;-75
2024/04/06 01:57:28;;;;;;;3.30;1.73;;;;;;;9.05;57.68;95219.81;5041598;28;20059;-74
2024/04/06 01:59:53;;;;;;;2.83;1.70;;;;;;;8.92;57.93;95210.34;5038156;28;20058;-74
2024/04/06 02:02:19;;;;;;;2.10;1.60;;;;;;;8.87;58.10;95212.41;5021242;28;20386;-75
2024/04/06 02:04:47;;;;;;;3.53;1.88;;;;;;;8.85;58.05;95219.47;5036057;28;20481;-75
2024/04/06 02:07:13;;;;;;;3.88;1.60;;;;;;;8.83;58.85;95220.50;5033241;28;20039;-74
2024/04/06 02:09:38;;;;;;;2.55;1.80;;;;;;;8.65;59.06;95207.06;5037766;28;20025;-75
2024/04/06 02:12:04;;;;;;;2.90;1.40;;;;;;;8.85;58.71;95224.63;5068651;28;20102;-74
2024/04/06 02:14:30;;;;;;;3.17;1.60;;;;;;;8.93;58.29;95224.13;5072123;28;20503;-75
2024/04/06 02:16:55;;;;;;;4.35;1.50;;;;;;;9.00;58.08;95220.16;5031767;28;20033;-75
2024/04/06 02:19:20;;;;;;;3.67;1.60;;;;;;;8.82;58.16;95198.94;5017970;28;20422;-75
2024/04/06 02:21:46;;;;;;;2.38;1.60;;;;;;;9.06;58.24;95211.97;5034029;28;20029;-74
2024/04/06 02:24:11;;;;;;;4.00;1.63;;;;;;;8.99;58.16;95215.09;5062899;28;20036;-75
2024/04/06 02:26:37;;;;;;;2.28;1.48;;;;;;;9.00;58.05;95219.31;5033396;28;20025;-74
2024/04/06 02:29:02;;;;;;;2.50;1.60;;;;;;;8.92;58.40;95212.09;5020560;28;20103;-73
2024/04/06 02:31:27;;;;;;;2.85;1.80;;;;;;;8.98;58.62;95219.44;5033890;28;20029;-75
2024/04/06 02:33:53;;;;;;;3.00;1.65;;;;;;;9.07;59.00;95228.34;5035967;28;20402;-74
2024/04/06 02:36:19;;;;;;;3.33;1.80;;;;;;;9.09;59.13;95227.28;5042004;28;20044;-74
2024/04/06 02:38:44;;;;;;;2.85;1.50;;;;;;;9.21;58.71;95220.41;5033716;28;20081;-75
2024/04/06 02:41:10;;;;;;;2.97;1.80;;;;;;;8.81;59.22;95180.94;5018576;28;20506;-75
2024/04/06 02:43:35;;;;;;;2.83;1.45;;;;;;;9.19;59.88;95219.69;5037975;28;20037;-74
2024/04/06 02:46:00;;;;;;;2.67;1.50;;;;;;;8.92;59.94;95214.69;5051355;28;20024;-74
2024/04/06 02:48:26;;;;;;;2.75;1.52;;;;;;;8.76;59.74;95227.06;5025143;28;20033;-74
2024/04/06 02:50:51;;;;;;;3.28;1.50;;;;;;;8.78;59.44;95222.59;5041326;28;20033;-74
2024/04/06 02:53:16;;;;;;;2.67;1.60;;;;;;;8.86;59.13;95220.28;5052081;28;20036;-74
2024/04/06 02:55:42;;;;;;;2.30;1.27;;;;;;;8.79;59.50;95227.66;5053336;28;20024;-74
2024/04/06 02:58:08;;;;;;;2.50;1.40;;;;;;;8.90;59.39;95214.78;5035342;28;20039;-75
2024/04/06 03:00:35;;;;;;;3.28;1.38;;;;;;;9.02;59.53;95230.41;5033616;28;20047;-74
2024/04/06 03:03:01;;;;;;;4.00;1.50;;;;;;;9.04;60.22;95228.56;5030309;28;20123;-74
2024/04/06 03:05:26;;;;;;;2.33;1.58;;;;;;;8.90;60.91;95225.16;5053275;28;20430;-75
2024/04/06 03:07:51;;;;;;;2.42;1.50;;;;;;;8.72;60.22;95214.31;5071321;28;20150;-74
2024/04/06 03:10:17;;;;;;;3.33;1.58;;;;;;;8.58;60.50;95221.34;5046488;28;20037;-74
2024/04/06 03:12:42;;;;;;;2.28;1.50;;;;;;;8.62;59.42;95215.06;5020546;28;20045;-74
2024/04/06 03:15:08;;;;;;;3.10;1.35;;;;;;;8.63;60.29;95214.09;5000489;28;20039;-73
2024/04/06 03:17:33;;;;;;;2.03;1.40;;;;;;;8.59;60.09;95226.44;5062241;28;20098;-75
2024/04/06 03:19:59;;;;;;;2.08;1.23;;;;;;;8.54;60.71;95196.63;5035344;28;20695;-75
2024/04/06 03:22:24;;;;;;;3.08;1.50;;;;;;;8.76;60.88;95230.47;5031964;28;20463;-75
2024/04/06 03:24:50;;;;;;;2.70;1.40;;;;;;;8.59;61.17;95212.69;5071063;28;20035;-75
2024/04/06 03:27:15;;;;;;;2.40;1.30;;;;;;;8.65;61.32;95230.38;5003673;28;20095;-74
2024/04/06 03:29:41;;;;;;;2.50;1.40;;;;;;;8.55;61.83;95226.75;5032576;28;20037;-74
2024/04/06 03:32:06;;;;;;;2.20;1.33;;;;;;;8.45;62.33;95219.63;5063702;28;20368;-74
2024/04/06 03:34:32;;;;;;;3.08;1.30;;;;;;;8.32;62.38;95217.94;5007008;28;20033;-74
2024/04/06 03:36:57;;;;;;;2.22;1.50;;;;;;;8.23;61.55;95219.38;5030655;28;20021;-75
2024/04/06 03:39:23;;;;;;;2.47;1.40;;;;;;;8.10;62.31;95219.34;5016496;28;20037;-73
2024/04/06 03:41:48;;;;;;;3.60;1.30;;;;;;;7.91;64.12;95219.78;5025629;28;20040;-75
2024/04/06 03:44:14;;;;;;;2.88;1.30;;;;;;;7.73;64.39;95220.97;5070549;28;20036;-75
2024/04/06 03:46:39;;;;;;;2.05;1.30;;;;;;;7.79;64.54;95215.38;5052638;28;20028;-74
2024/04/06 03:49:05;;;;;;;2.35;1.42;;;;;;;7.87;64.79;95220.88;5052786;28;20426;-73
2024/04/06 03:51:30;;;;;;;3.53;1.10;;;;;;;7.80;64.63;95214.44;5034511;28;20539;-74
2024/04/06 03:53:55;;;;;;;3.25;1.40;;;;;;;7.68;63.58;95207.50;5035795;28;20481;-74
2024/04/06 03:56:21;;;;;;;2.33;1.40;;;;;;;7.72;63.88;95214.97;5070416;28;20486;-74
2024/04/06 03:58:46;;;;;;;2.75;1.33;;;;;;;7.79;62.95;95216.22;5035839;28;20033;-74
2024/04/06 04:01:12;;;;;;;2.17;1.20;;;;;;;7.75;62.36;95196.66;5033030;28;20064;-74
2024/04/06 04:03:38;;;;;;;2.83;1.77;;;;;;;7.96;62.37;95220.28;5036079;28;20425;-75
2024/04/06 04:06:04;;;;;;;3.15;1.60;;;;;;;8.05;61.73;95224.84;5052581;28;20410;-75
2024/04/06 04:08:30;;;;;;;3.42;1.40;;;;;;;8.11;61.07;95228.81;5034638;28;20032;-74
2024/04/06 04:10:56;;;;;;;2.10;1.17;;;;;;;8.13;61.20;95228.69;5032548;28;20094;-75
2024/04/06 04:13:23;;;;;;;3.72;2.40;;;;;;;8.18;61.60;95229.22;5028623;28;20116;-75
2024/04/06 04:15:48;;;;;;;3.33;2.30;;;;;;;8.15;62.13;95240.59;5061986;28;20099;-74
2024/04/06 04:18:14;;;;;;;3.25;2.40;;;;;;;8.14;62.96;95249.28;5044943;28;20032;-75
2024/04/06 04:20:40;;;;;;;4.60;2.92;;;;;;;8.10;62.99;95247.00;5062772;28;20021;-75
2024/04/06 04:23:05;;;;;;;2.35;1.50;;;;;;;8.21;61.98;95229.00;5026606;28;20037;-75
2024/04/06 04:25:30;;;;;;;2.28;1.35;;;;;;;8.13;61.63;95215.75;5058502;28;20101;-75
2024/04/06 04:27:59;;;;;;;2.53;1.23;;;;;;;8.37;62.13;95233.97;5056925;28;20489;-75
2024/04/06 04:30:25;;;;;;;2.70;1.13;;;;;;;8.43;60.94;95243.97;5039480;28;20105;-75
2024/04/06 04:32:51;;;;;;;3.13;1.30;;;;;;;8.54;60.22;95243.22;5041849;28;20487;-75
2024/04/06 04:35:17;;;;;;;2.72;1.42;;;;;;;8.57;59.89;95233.47;5010991;28;20021;-74
2024/04/06 04:37:42;;;;;;;2.72;1.48;;;;;;;8.59;59.70;95235.97;5072584;28;20035;-74
2024/04/06 04:40:26;;;;;;;2.70;1.20;;;;;;;8.68;59.76;95248.28;5068064;28;20025;-75
2024/04/06 04:42:52;;;;;;;1.52;1.10;;;;;;;8.68;60.02;95248.28;5048183;28;20391;-75
2024/04/06 04:45:17;;;;;;;2.80;1.40;;;;;;;8.74;59.80;95253.06;5038606;28;20051;-74
2024/04/06 04:47:43;;;;;;;2.10;1.27;;;;;;;8.82;59.58;95255.94;5053022;28;20037;-77
2024/04/06 04:50:11;;;;;;;3.08;1.50;;;;;;;9.10;60.25;95254.84;5065384;28;20517;-77
2024/04/06 04:52:36;;;;;;;4.22;1.60;;;;;;;9.18;60.04;95249.13;5033904;28;20024;-75
2024/04/06 04:55:03;;;;;;;3.13;1.50;;;;;;;9.79;59.26;95265.50;5066074;28;20571;-77
2024/04/06 04:57:29;;;;;;;3.20;1.50;;;;;;;10.46;57.95;95261.50;5063121;28;20123;-79
2024/04/06 04:59:54;;;;;;;2.38;1.33;;;;;;;11.43;55.08;95251.44;5048046;28;20506;-78
2024/04/06 05:02:19;;;;;;;1.83;1.13;;;;;;;12.67;51.41;95249.13;5034178;28;20036;-79
2024/04/06 05:04:45;;;;;;;3.55;1.45;;;;;;;13.84;47.94;95261.59;5037731;28;20040;-79
2024/04/06 05:07:10;;;;;;;2.38;1.45;;;;;;;14.57;45.66;95258.59;5063104;28;20035;-75
2024/04/06 05:09:36;;;;;;;4.95;1.80;;;;;;;15.51;43.89;95255.06;5048919;28;20044;-75
2024/04/06 05:12:02;;;;;;;2.33;1.25;;;;;;;16.19;42.17;95252.03;5057025;28;20039;-75
2024/04/06 05:14:28;;;;;;;3.70;1.52;;;;;;;17.23;39.65;95261.75;5038277;28;20035;-77
2024/04/06 05:16:54;;;;;;;3.60;1.50;;;;;;;17.97;38.49;95266.31;5040855;28;20029;-77
2024/04/06 05:19:20;;;;;;;2.55;1.60;;;;;;;18.60;36.18;95264.84;5064276;28;20037;-76
2024/04/06 05:21:45;;;;;;;2.90;1.75;;;;;;;18.95;35.66;95276.88;5013319;28;20502;-77
2024/04/06 05:24:11;;;;;;;3.60;1.75;;;;;;;19.15;34.56;95282.56;5071893;28;20052;-77
2024/04/06 05:26:37;;;;;;;4.05;1.77;;;;;;;18.62;34.33;95275.22;5054821;28;20102;-80
2024/04/06 05:29:02;;;;;;;2.97;1.90;;;;;;;17.90;37.44;95275.00;5030991;28;20084;-76
2024/04/06 05:31:28;;;;;;;3.13;2.20;;;;;;;17.63;38.34;95276.84;5041232;28;20029;-76
2024/04/06 05:33:53;;;;;;;2.72;1.95;;;;;;;16.91;40.14;95277.19;5037117;28;20044;-77
2024/04/06 05:36:19;;;;;;;3.13;2.10;;;;;;;15.80;42.28;95270.66;5063931;28;20060;-78
2024/04/06 05:38:44;;;;;;;4.28;2.85;;;;;;;15.58;42.29;95270.06;5044433;28;20518;-79
2024/04/06 05:41:09;;;;;;;3.67;2.30;;;;;;;15.40;42.57;95266.56;5053140;28;20032;-77
2024/04/06 05:43:35;;;;;;;6.00;1.98;;;;;;;15.25;42.76;95266.22;5046020;28;20032;-79
2024/04/06 05:46:04;;;;;;;4.28;2.40;;;;;;;15.11;43.75;95264.09;5052088;28;20548;-78
2024/04/06 05:48:29;;;;;;;3.60;2.22;;;;;;;14.86;43.93;95248.06;5049750;28;20502;-78
2024/04/06 05:50:56;;;;;;;3.92;2.35;;;;;;;14.85;43.50;95258.66;5032758;28;20033;-78
2024/04/06 05:53:22;;;;;;;6.57;2.53;;;;;;;14.75;44.09;95266.53;5040972;28;20120;-79
2024/04/06 05:55:47;;;;;;;7.88;2.70;;;;;;;14.64;44.51;95271.94;5051104;28;20084;-79
2024/04/06 05:58:13;;;;;;;5.22;2.90;;;;;;;13.77;45.63;95273.56;5049194;28;20025;-78
2024/04/06 06:00:39;;;;;;;11.32;3.28;;;;;;;13.96;45.70;95271.97;5051679;28;20032;-78
2024/04/06 06:03:04;;;;;;;9.43;3.03;;;;;;;14.50;45.12;95270.53;5030380;28;20410;-78
2024/04/06 06:05:30;;;;;;;6.78;3.20;;;;;;;14.18;45.09;95258.63;5039204;28;20167;-78
2024/04/06 06:07:55;;;;;;;11.57;2.83;;;;;;;14.21;46.57;95253.13;5041515;28;20025;-78
2024/04/06 06:10:20;;;;;;;9.75;2.80;;;;;;;14.39;45.04;95258.44;5034109;28;20037;-78
2024/04/06 06:12:46;;;;;;;20.05;2.67;;;;;;;13.86;46.41;95259.69;5032298;28;20048;-77
2024/04/06 06:15:11;;;;;;;10.73;2.60;;;;;;;14.05;46.53;95265.91;5018211;28;20034;-77
2024/04/06 06:17:37;;;;;;;11.65;4.40;;;;;;;13.92;46.61;95265.34;5050277;28;20051;-78
2024/04/06 06:20:07;;;;;;;9.27;3.30;;;;;;;13.67;46.99;95248.41;5034658;28;20112;-76
2024/04/06 06:22:32;;;;;;;6.65;2.88;;;;;;;13.86;47.32;95271.94;5045667;28;20033;-78
2024/04/06 06:24:58;;;;;;;5.45;2.10;;;;;;;14.48;45.59;95265.44;5031814;28;20036;-76
2024/04/06 06:27:23;;;;;;;6.35;2.70;;;;;;;14.02;46.71;95232.22;5050233;28;20036;-78
2024/04/06 06:29:49;;;;;;;8.38;3.17;;;;;;;13.84;47.90;95266.84;5021755;28;20086;-77
2024/04/06 06:32:14;;;;;;;10.85;6.22;;;;;;;13.79;48.80;95273.41;5046185;28;20025;-77
2024/04/06 06:34:40;;;;;;;8.68;4.68;;;;;;;13.88;48.92;95263.97;5049859;28;20039;-78
2024/04/06 06:37:06;;;;;;;9.02;3.45;;;;;;;13.80;49.07;95256.81;5068999;28;20024;-79
2024/04/06 06:39:31;;;;;;;4.97;2.70;;;;;;;13.82;49.02;95267.97;5069572;28;20040;-78
2024/04/06 06:41:56;;;;;;;5.03;2.50;;;;;;;13.77;49.12;95264.91;5059170;28;20031;-78
2024/04/06 06:44:22;;;;;;;11.80;6.40;;;;;;;14.15;48.50;95271.97;5053334;28;20017;-78
2024/04/06 06:46:47;;;;;;;4.90;2.40;;;;;;;14.97;47.08;95274.03;5051242;28;20045;-79
2024/04/06 06:49:13;;;;;;;6.57;3.80;;;;;;;14.50;47.29;95288.84;5067117;28;20033;-78
2024/04/06 06:51:38;;;;;;;12.38;6.95;;;;;;;14.41;47.57;95279.22;5068177;28;20028;-78
2024/04/06 06:54:04;;;;;;;5.43;3.03;;;;;;;14.26;47.93;95292.72;5070335;28;20036;-78
2024/04/06 06:56:30;;;;;;;5.82;2.65;;;;;;;14.52;48.01;95292.19;5015888;28;20025;-78
2024/04/06 06:58:55;;;;;;;7.45;5.22;;;;;;;14.31;47.51;95303.56;5069235;28;20441;-79
2024/04/06 07:01:22;;;;;;;3.83;1.95;;;;;;;14.22;47.29;95293.94;5066173;28;20533;-78
2024/04/06 07:03:47;;;;;;;5.45;2.22;;;;;;;14.74;46.54;95297.09;5025636;28;20032;-78
2024/04/06 07:06:12;;;;;;;7.75;4.30;;;;;;;14.67;46.98;95295.19;5055065;28;20024;-79
2024/04/06 07:08:44;;;;;;;5.72;3.92;;;;;;;14.38;48.20;95292.59;5026812;28;20051;-77
2024/04/06 07:11:10;;;;;;;3.47;2.20;;;;;;;14.37;47.60;95293.53;5047292;28;20036;-76
2024/04/06 07:13:36;;;;;;;3.85;2.58;;;;;;;14.50;47.47;95287.06;5010823;28;20025;-77
2024/04/06 07:16:06;;;;;;;9.75;4.65;;;;;;;14.68;47.09;95289.81;5031349;28;20043;-78
2024/04/06 07:18:32;;;;;;;6.65;4.78;;;;;;;14.65;47.30;95287.47;5040133;28;20086;-78
2024/04/06 07:20:58;;;;;;;5.75;3.00;;;;;;;14.73;46.58;95290.19;5047055;28;20041;-80
2024/04/06 07:23:24;;;;;;;6.65;3.28;;;;;;;14.88;45.81;95282.75;5028958;28;20029;-79
2024/04/06 07:25:49;;;;;;;3.97;2.58;;;;;;;14.99;45.03;95294.84;5028671;28;20051;-79
2024/04/06 07:28:16;;;;;;;3.97;1.88;;;;;;;14.85;45.62;95297.88;5040408;28;20045;-78
2024/04/06 07:30:42;;;;;;;7.60;2.97;;;;;;;14.75;45.77;95288.28;5049429;28;20033;-77
2024/04/06 07:33:07;;;;;;;4.88;2.83;;;;;;;14.80;45.11;95303.56;5031061;28;20068;-76
2024/04/06 07:35:33;;;;;;;2.95;1.52;;;;;;;14.46;44.79;95270.00;5032201;28;20025;-76
2024/04/06 07:37:58;;;;;;;3.92;2.05;;;;;;;14.89;44.72;95307.94;5043762;28;20045;-77
2024/04/06 07:40:23;;;;;;;4.35;1.88;;;;;;;14.95;44.03;95306.53;5013690;28;20741;-76
2024/04/06 07:42:51;;;;;;;3.75;2.38;;;;;;;15.08;44.00;95301.81;5046356;28;20032;-76
2024/04/06 07:45:16;;;;;;;8.10;5.13;;;;;;;15.11;43.91;95301.53;5047257;28;20029;-77
2024/04/06 07:47:42;;;;;;;5.82;2.75;;;;;;;15.27;43.66;95289.66;5033984;28;20504;-77
2024/04/06 07:50:07;;;;;;;6.07;2.00;;;;;;;15.82;43.04;95297.50;5069522;28;20025;-77
2024/04/06 07:52:34;;;;;;;4.57;2.10;;;;;;;16.17;42.70;95290.66;5055832;28;20052;-77
2024/04/06 07:55:00;;;;;;;4.60;2.00;;;;;;;16.24;41.89;95281.22;5045364;28;20741;-77
2024/04/06 07:57:25;;;;;;;7.45;5.25;;;;;;;16.05;42.27;95282.22;5057526;28;20037;-78
2024/04/06 07:59:51;;;;;;;4.25;2.67;;;;;;;16.15;42.48;95272.44;5058445;28;20430;-77
2024/04/06 08:02:16;;;;;;;6.30;2.78;;;;;;;16.18;42.70;95280.00;5046600;28;20025;-77
2024/04/06 08:04:42;;;;;;;5.95;1.65;;;;;;;15.98;42.83;95275.91;5050297;28;20490;-78
2024/04/06 08:07:07;;;;;;;3.60;1.70;;;;;;;16.53;42.19;95281.78;5025815;28;20036;-77
2024/04/06 08:09:33;;;;;;;4.45;2.88;;;;;;;16.62;42.18;95293.16;5048918;28;20418;-78
2024/04/06 08:11:58;;;;;;;5.80;2.22;;;;;;;16.64;41.49;95277.28;5022193;28;20522;-74
2024/04/06 08:14:24;;;;;;;5.65;1.88;;;;;;;16.78;41.28;95281.19;5028756;28;20026;-80
2024/04/06 08:16:49;;;;;;;4.38;1.75;;;;;;;16.70;40.93;95258.31;5030864;28;20045;-75
2024/04/06 08:19:14;;;;;;;4.35;2.17;;;;;;;16.96;40.96;95281.94;5040785;28;20064;-77
2024/04/06 08:21:40;;;;;;;4.18;2.05;;;;;;;17.23;40.19;95286.22;5028571;28;20029;-76
2024/04/06 08:24:06;;;;;;;3.83;2.38;;;;;;;17.23;40.39;95285.38;5019496;28;20040;-76
2024/04/06 08:26:31;;;;;;;5.20;2.40;;;;;;;17.63;40.25;95285.56;5041178;28;20059;-76
2024/04/06 08:28:57;;;;;;;7.10;2.55;;;;;;;17.39;40.26;95278.41;5063959;28;20083;-76
2024/04/06 08:31:22;;;;;;;7.25;2.45;;;;;;;17.83;38.97;95259.06;5071470;28;20021;-77
2024/04/06 08:33:48;;;;;;;6.95;1.95;;;;;;;18.43;37.44;95250.88;5069250;28;20028;-76
2024/04/06 08:36:13;;;;;;;5.68;2.60;;;;;;;18.47;38.99;95260.13;5070135;28;20024;-76
2024/04/06 08:38:38;;;;;;;5.47;2.30;;;;;;;18.14;39.51;95272.41;5080629;28;20363;-76
2024/04/06 08:41:08;;;;;;;6.90;3.13;;;;;;;18.34;40.25;95245.81;5077112;28;20452;-76
2024/04/06 08:43:35;;;;;;;7.68;3.42;;;;;;;18.17;39.21;95264.19;5073659;28;20033;-76
2024/04/06 08:46:01;;;;;;;5.22;2.33;;;;;;;17.93;38.32;95227.38;5060208;28;20021;-76
2024/04/06 08:48:28;;;;;;;3.25;1.80;;;;;;;18.28;37.83;95253.38;5088181;28;20090;-75
2024/04/06 08:50:53;;;;;;;8.20;2.33;;;;;;;18.34;38.24;95248.44;5072781;28;20033;-75
2024/04/06 08:53:19;;;;;;;7.00;1.83;;;;;;;18.69;36.95;95263.03;5091330;28;20035;-75
2024/04/06 08:55:45;;;;;;;6.45;3.50;;;;;;;18.84;37.28;95263.25;5086944;28;20039;-76
2024/04/06 08:58:10;;;;;;;3.85;2.00;;;;;;;18.42;37.02;95240.56;5058016;28;20063;-77
2024/04/06 09:00:35;;;;;;;6.20;1.88;;;;;;;18.66;37.96;95255.47;5054231;28;20021;-77
2024/04/06 09:03:01;;;;;;;6.10;2.53;;;;;;;18.51;38.02;95269.31;5037673;28;20530;-76
2024/04/06 09:05:27;;;;;;;5.10;2.13;;;;;;;18.48;38.04;95263.56;5054779;28;20033;-76
2024/04/06 09:07:52;;;;;;;3.92;1.83;;;;;;;18.96;36.90;95259.25;5059432;28;20048;-77
2024/04/06 09:10:18;;;;;;;5.47;1.63;;;;;;;19.25;36.37;95257.84;5053655;28;20395;-76
2024/04/06 09:12:43;;;;;;;6.93;2.10;;;;;;;19.38;36.41;95264.22;5035540;28;20543;-76
2024/04/06 09:15:14;;;;;;;6.97;2.30;;;;;;;19.51;36.38;95260.25;5058107;28;20017;-75
2024/04/06 09:17:41;;;;;;;5.53;2.35;;;;;;;19.20;37.01;95240.75;5071157;28;20106;-76
2024/04/06 09:20:08;;;;;;;5.97;2.42;;;;;;;19.59;35.53;95253.13;5070589;28;20049;-78
2024/04/06 09:22:33;;;;;;;7.70;1.98;;;;;;;19.29;35.44;95251.28;5072460;28;20080;-77
2024/04/06 09:24:58;;;;;;;8.27;2.13;;;;;;;19.51;36.16;95241.81;5021221;28;20494;-76
2024/04/06 09:27:24;;;;;;;8.00;2.35;;;;;;;19.69;35.42;95226.56;5053538;28;20521;-77
2024/04/06 09:29:49;;;;;;;8.00;2.20;;;;;;;19.94;35.18;95245.72;5059713;28;20021;-76
2024/04/06 09:32:19;;;;;;;5.53;2.53;;;;;;;20.00;35.05;95242.41;5066285;28;20441;-77
2024/04/06 09:34:51;;;;;;;5.10;1.85;;;;;;;20.26;33.77;95254.41;5055071;28;20028;-76
2024/04/06 09:37:34;;;;;;;4.18;2.42;;;;;;;20.29;33.90;95249.59;5058249;28;20060;-77
2024/04/06 09:39:59;;;;;;;6.25;1.90;;;;;;;20.42;32.58;95230.56;5042033;28;20058;-77
2024/04/06 09:42:25;;;;;;;6.03;2.17;;;;;;;20.78;33.01;95244.94;5072592;28;20041;-77
2024/04/06 09:44:50;;;;;;;3.78;1.20;;;;;;;20.53;30.87;95231.94;5033126;28;20029;-77
2024/04/06 09:47:15;;;;;;;2.85;1.10;;;;;;;20.57;29.70;95229.78;5017603;28;20028;-76
2024/04/06 09:49:41;;;;;;;4.55;2.08;;;;;;;21.19;30.35;95218.91;5087153;28;20491;-77
2024/04/06 09:52:06;;;;;;;4.25;2.53;;;;;;;21.41;30.01;95209.28;5073713;28;20414;-77
2024/04/06 09:54:32;;;;;;;6.43;2.20;;;;;;;21.75;30.25;95202.56;5040779;28;20063;-76
2024/04/06 09:56:58;;;;;;;4.68;2.42;;;;;;;21.63;29.69;95203.03;5038510;28;20035;-77
2024/04/06 09:59:27;;;;;;;7.47;1.77;;;;;;;21.22;29.18;95191.31;5021803;28;20426;-77
2024/04/06 10:01:53;;;;;;;4.68;2.35;;;;;;;20.95;30.15;95189.16;5018185;28;20044;-74
2024/04/06 10:04:26;;;;;;;2.65;1.33;;;;;;;21.64;29.19;95193.28;5017533;28;20029;-77
2024/04/06 10:06:54;;;;;;;3.20;1.45;;;;;;;21.83;30.05;95190.03;5036367;28;20226;-77
2024/04/06 10:09:19;;;;;;;9.60;4.95;;;;;;;21.85;29.10;95177.47;5056154;28;20407;-76
2024/04/06 10:11:45;;;;;;;5.57;2.08;;;;;;;21.86;29.47;95155.28;5054538;28;20032;-79
2024/04/06 10:14:10;;;;;;;3.03;1.48;;;;;;;22.23;28.70;95158.72;5066599;28;20029;-74
2024/04/06 10:16:38;;;;;;;3.50;1.17;;;;;;;22.51;28.22;95164.03;5050940;28;20021;-75
2024/04/06 10:19:04;;;;;;;8.30;4.28;;;;;;;22.09;28.49;95170.16;5034439;28;20037;-75
2024/04/06 10:21:30;;;;;;;8.18;1.50;;;;;;;22.28;28.41;95156.31;5018368;28;20028;-75
2024/04/06 10:23:55;;;;;;;3.55;1.30;;;;;;;22.40;27.47;95166.38;5070348;28;20508;-75
2024/04/06 10:26:22;;;;;;;5.20;1.30;;;;;;;22.55;27.42;95161.00;5046545;28;20012;-75
2024/04/06 10:28:48;;;;;;;4.07;0.90;;;;;;;21.94;26.25;95156.19;5030314;28;20072;-75
2024/04/06 10:31:13;;;;;;;4.35;1.30;;;;;;;22.08;26.49;95147.34;5034007;28;20052;-75
2024/04/06 10:33:39;;;;;;;4.38;1.20;;;;;;;22.09;26.71;95151.63;5044153;28;20036;-74
2024/04/06 10:36:11;;;;;;;4.22;1.10;;;;;;;22.10;25.98;95140.06;5043929;28;20025;-74
2024/04/06 10:38:40;;;;;;;5.05;1.45;;;;;;;21.91;27.06;95146.78;5034031;28;20040;-75
2024/04/06 10:41:06;;;;;;;2.78;1.13;;;;;;;22.06;27.85;95123.75;5023116;28;20043;-75
2024/04/06 10:43:32;;;;;;;5.13;1.58;;;;;;;22.04;27.13;95127.59;5063293;28;20024;-75
2024/04/06 10:45:58;;;;;;;2.40;1.00;;;;;;;21.60;27.37;95136.53;5036249;28;20043;-75
2024/04/06 10:48:24;;;;;;;2.03;1.20;;;;;;;21.61;27.62;95135.50;5027222;28;20036;-75
2024/04/06 10:50:49;;;;;;;2.03;0.90;;;;;;;22.01;27.30;95130.63;5058882;28;20032;-74
2024/04/06 10:53:15;;;;;;;2.78;1.15;;;;;;;22.11;27.32;95128.44;5031320;28;20478;-75
2024/04/06 10:55:42;;;;;;;1.38;0.80;;;;;;;21.73;25.80;95118.16;5023128;28;20111;-75
2024/04/06 10:58:08;;;;;;;2.40;0.80;;;;;;;21.88;26.68;95112.81;5033474;28;20115;-75
2024/04/06 11:00:33;;;;;;;3.65;1.00;;;;;;;22.00;26.86;95115.75;5052025;28;20055;-75
2024/04/06 11:03:02;;;;;;;2.53;1.00;;;;;;;22.26;26.68;95105.44;5026766;28;20017;-75
2024/04/06 11:05:28;;;;;;;2.15;1.02;;;;;;;21.54;26.44;95089.72;5066200;28;20031;-74
2024/04/06 11:07:53;;;;;;;4.18;1.13;;;;;;;21.32;26.61;95104.69;5050474;28;20032;-75
2024/04/06 11:10:18;;;;;;;3.63;1.00;;;;;;;21.48;27.10;95074.56;5052907;28;20029;-76
2024/04/06 11:12:44;;;;;;;3.97;1.23;;;;;;;21.97;26.64;95092.31;5038385;28;20111;-76
2024/04/06 11:15:10;;;;;;;3.78;1.05;;;;;;;22.28;26.29;95084.84;5065186;28;20024;-75
2024/04/06 11:17:36;;;;;;;4.32;1.10;;;;;;;22.51;25.64;95079.34;5017940;28;20032;-76
2024/04/06 11:20:02;;;;;;;3.17;0.90;;;;;;;22.47;25.99;95082.56;5063679;28;20032;-75
2024/04/06 11:22:28;;;;;;;2.45;1.00;;;;;;;22.05;25.69;95082.44;5035341;28;20559;-75
2024/04/06 11:24:53;;;;;;;2.33;0.90;;;;;;;22.21;26.59;95081.38;5063050;28;20025;-75
2024/04/06 11:27:20;;;;;;;2.95;1.02;;;;;;;22.24;25.60;95066.94;5052385;28;20153;-76
2024/04/06 11:29:51;;;;;;;2.40;1.00;;;;;;;22.26;26.39;95078.97;5054520;28;20029;-75